Time;durP1;ratioP1;P1;durP2;ratioP2;P2;SDS_P1;SDS_P2;PMS_P1;PMS_P2;Temp;Humidity;BMP_temperature;BMP_pressure;BME280_temperature;BME280_humidity;BME280_pressure;Samples;Min_cycle;Max_cycle;Signal;HPM_P1;HPM_P2
2022/02/16 00:01:08;;;;;;;0.40;0.40;;;4.50;99.10;;;;;;5014629;28;20177;-72
2022/02/16 00:03:34;;;;;;;0.30;0.30;;;4.50;99.10;;;;;;5014137;28;20174;-73
2022/02/16 00:06:00;;;;;;;0.30;0.30;;;4.50;99.10;;;;;;5013935;28;20209;-73
2022/02/16 00:08:26;;;;;;;0.30;0.30;;;4.40;99.20;;;;;;5014233;28;20583;-72
2022/02/16 00:10:52;;;;;;;0.30;0.30;;;4.40;99.20;;;;;;5014266;28;20412;-72
2022/02/16 00:13:18;;;;;;;0.30;0.30;;;4.40;99.20;;;;;;5014327;28;20257;-72
2022/02/16 00:15:43;;;;;;;0.40;0.40;;;4.40;99.20;;;;;;5014204;28;20408;-72
2022/02/16 00:18:09;;;;;;;0.40;0.40;;;4.40;99.20;;;;;;5014260;28;20413;-72
2022/02/16 00:20:35;;;;;;;0.30;0.30;;;4.50;99.20;;;;;;5014095;28;20174;-72
2022/02/16 00:23:02;;;;;;;0.35;0.35;;;4.50;99.20;;;;;;5014016;28;20202;-72
2022/02/16 00:25:28;;;;;;;0.30;0.30;;;4.60;99.00;;;;;;5013841;28;20209;-72
2022/02/16 00:27:54;;;;;;;0.30;0.30;;;4.60;98.90;;;;;;5014211;28;20171;-72
2022/02/16 00:30:19;;;;;;;0.30;0.30;;;4.60;99.00;;;;;;5014131;28;20632;-72
2022/02/16 00:32:45;;;;;;;0.30;0.30;;;4.60;98.90;;;;;;5013805;28;20425;-72
2022/02/16 00:35:11;;;;;;;0.30;0.30;;;4.50;98.90;;;;;;5013911;28;20972;-72
2022/02/16 00:37:37;;;;;;;0.30;0.30;;;4.60;98.90;;;;;;5014090;28;20183;-73
2022/02/16 00:40:03;;;;;;;0.33;0.33;;;4.60;99.00;;;;;;5013821;28;20405;-73
2022/02/16 00:42:29;;;;;;;0.30;0.30;;;4.50;99.00;;;;;;5013838;28;20191;-72
2022/02/16 00:44:54;;;;;;;0.30;0.30;;;4.50;99.00;;;;;;5013669;28;20212;-72
2022/02/16 00:47:20;;;;;;;0.50;0.50;;;4.60;99.10;;;;;;5012453;28;20178;-73
2022/02/16 00:49:46;;;;;;;0.33;0.33;;;4.60;99.10;;;;;;5012468;28;20180;-72
2022/02/16 00:52:12;;;;;;;0.50;0.50;;;4.50;99.00;;;;;;5013528;28;20728;-72
2022/02/16 00:54:39;;;;;;;0.30;0.30;;;4.40;99.10;;;;;;5013958;28;20183;-73
2022/02/16 00:57:05;;;;;;;0.35;0.35;;;4.50;99.20;;;;;;5013624;28;20649;-72
2022/02/16 00:59:31;;;;;;;0.30;0.30;;;4.50;99.20;;;;;;5013784;28;20204;-73
2022/02/16 01:01:57;;;;;;;0.30;0.30;;;4.60;99.20;;;;;;5013713;28;20438;-72
2022/02/16 01:04:24;;;;;;;0.30;0.30;;;4.60;99.10;;;;;;5013564;28;20211;-73
2022/02/16 01:06:50;;;;;;;0.30;0.30;;;4.50;98.90;;;;;;5012224;28;20497;-73
2022/02/16 01:09:16;;;;;;;0.30;0.30;;;4.60;99.00;;;;;;5013651;28;20175;-73
2022/02/16 01:11:42;;;;;;;0.30;0.30;;;4.60;98.90;;;;;;5013663;28;20252;-73
2022/02/16 01:14:08;;;;;;;0.40;0.40;;;4.50;98.80;;;;;;5013482;28;20214;-72
2022/02/16 01:16:35;;;;;;;0.40;0.40;;;4.60;98.80;;;;;;5014718;28;20170;-72
2022/02/16 01:19:03;;;;;;;0.40;0.40;;;4.50;98.90;;;;;;5017433;28;20175;-73
2022/02/16 01:21:29;;;;;;;0.40;0.40;;;4.50;99.00;;;;;;5017404;28;20242;-72
2022/02/16 01:23:54;;;;;;;0.30;0.30;;;4.60;99.10;;;;;;5016044;28;20213;-72
2022/02/16 01:26:21;;;;;;;0.30;0.30;;;4.60;99.00;;;;;;5017172;28;20534;-72
2022/02/16 01:28:46;;;;;;;0.30;0.30;;;4.60;99.00;;;;;;5016172;28;20185;-72
2022/02/16 01:31:12;;;;;;;0.40;0.40;;;4.60;99.00;;;;;;5017774;28;20552;-72
2022/02/16 01:33:37;;;;;;;0.30;0.30;;;4.50;98.90;;;;;;5017153;28;20179;-72
2022/02/16 01:36:04;;;;;;;0.40;0.40;;;4.50;99.10;;;;;;5017036;28;20174;-72
2022/02/16 01:38:30;;;;;;;0.30;0.30;;;4.50;99.10;;;;;;5017157;28;20181;-72
2022/02/16 01:40:55;;;;;;;0.30;0.30;;;4.50;99.10;;;;;;5017135;28;20172;-72
2022/02/16 01:43:23;;;;;;;0.33;0.33;;;4.50;99.20;;;;;;5016967;28;20175;-72
2022/02/16 01:45:48;;;;;;;0.30;0.30;;;4.40;99.10;;;;;;5016673;28;20198;-72
2022/02/16 01:48:14;;;;;;;0.37;0.37;;;4.40;99.10;;;;;;5016955;28;20218;-72
2022/02/16 01:50:40;;;;;;;0.30;0.30;;;4.40;99.30;;;;;;5017062;28;20412;-72
2022/02/16 01:53:06;;;;;;;0.30;0.30;;;4.40;99.40;;;;;;5016544;28;20206;-72
2022/02/16 01:55:32;;;;;;;0.30;0.30;;;4.50;99.30;;;;;;5016733;28;20180;-72
2022/02/16 01:57:59;;;;;;;0.30;0.30;;;4.50;99.30;;;;;;5016878;28;20437;-72
2022/02/16 02:00:25;;;;;;;0.30;0.30;;;4.40;99.20;;;;;;5017069;28;20218;-73
2022/02/16 02:02:51;;;;;;;0.30;0.30;;;4.50;99.30;;;;;;5016542;28;20238;-72
2022/02/16 02:05:16;;;;;;;0.40;0.40;;;4.50;99.20;;;;;;5016512;28;20816;-72
2022/02/16 02:07:42;;;;;;;0.30;0.30;;;4.50;99.20;;;;;;5016675;28;20195;-72
2022/02/16 02:10:09;;;;;;;0.30;0.30;;;4.50;99.60;;;;;;5016615;28;20254;-72
2022/02/16 02:12:49;;;;;;;0.30;0.30;;;4.50;99.40;;;;;;5016540;28;20458;-72
2022/02/16 02:15:15;;;;;;;0.30;0.30;;;4.50;99.50;;;;;;5016227;28;20208;-72
2022/02/16 02:17:41;;;;;;;0.35;0.35;;;4.50;99.40;;;;;;5016433;28;20242;-72
2022/02/16 02:20:28;;;;;;;0.30;0.30;;;4.50;99.40;;;;;;5016402;28;20181;-72
2022/02/16 02:22:54;;;;;;;0.30;0.30;;;4.50;99.40;;;;;;5016412;28;20774;-72
2022/02/16 02:25:21;;;;;;;0.30;0.30;;;4.50;99.50;;;;;;5016426;28;20419;-72
2022/02/16 02:27:46;;;;;;;0.35;0.35;;;4.30;99.50;;;;;;5016057;28;20398;-72
2022/02/16 02:30:13;;;;;;;0.30;0.30;;;4.20;99.60;;;;;;5016188;28;20624;-73
2022/02/16 02:32:43;;;;;;;0.30;0.30;;;4.30;99.90;;;;;;5016080;28;21009;-72
2022/02/16 02:35:10;;;;;;;0.30;0.30;;;4.30;99.90;;;;;;5014724;28;20190;-72
2022/02/16 02:37:39;;;;;;;0.30;0.30;;;4.40;99.80;;;;;;5016115;28;20178;-72
2022/02/16 02:40:06;;;;;;;0.40;0.40;;;4.20;99.60;;;;;;5015944;28;20185;-72
2022/02/16 02:42:36;;;;;;;0.30;0.30;;;4.10;99.70;;;;;;5015811;28;20257;-72
2022/02/16 02:45:04;;;;;;;0.30;0.30;;;3.90;99.90;;;;;;5016057;28;20203;-73
2022/02/16 02:47:30;;;;;;;0.30;0.30;;;3.80;99.90;;;;;;5016033;28;20176;-72
2022/02/16 02:49:55;;;;;;;0.30;0.30;;;3.80;99.90;;;;;;5015950;28;20172;-72
2022/02/16 02:52:21;;;;;;;0.30;0.30;;;4.00;99.90;;;;;;5015529;28;20615;-72
2022/02/16 02:54:46;;;;;;;0.40;0.40;;;4.00;99.90;;;;;;5015892;28;20166;-72
2022/02/16 02:57:12;;;;;;;0.30;0.30;;;4.00;99.90;;;;;;5015509;28;20539;-72
2022/02/16 02:59:38;;;;;;;0.30;0.30;;;3.90;99.90;;;;;;5015643;28;20179;-72
2022/02/16 03:02:04;;;;;;;0.30;0.30;;;4.00;99.90;;;;;;5015595;28;20566;-73
2022/02/16 03:04:29;;;;;;;0.30;0.30;;;4.10;99.90;;;;;;5015373;28;20464;-73
2022/02/16 03:06:55;;;;;;;0.30;0.30;;;4.10;99.90;;;;;;5015167;28;20438;-72
2022/02/16 03:09:21;;;;;;;0.30;0.30;;;4.20;99.90;;;;;;5015372;28;20172;-73
2022/02/16 03:11:46;;;;;;;0.30;0.30;;;4.30;99.90;;;;;;5015486;28;20249;-72
2022/02/16 03:14:12;;;;;;;0.30;0.30;;;4.30;99.90;;;;;;5015321;28;20168;-73
2022/02/16 03:16:38;;;;;;;0.40;0.40;;;4.40;99.90;;;;;;5015291;28;20182;-72
2022/02/16 03:19:05;;;;;;;0.30;0.30;;;4.30;99.90;;;;;;5015407;28;20210;-73
2022/02/16 03:21:31;;;;;;;0.30;0.30;;;4.10;99.90;;;;;;5015249;28;20609;-72
2022/02/16 03:23:56;;;;;;;0.30;0.30;;;3.90;99.90;;;;;;5015045;28;20176;-72
2022/02/16 03:26:22;;;;;;;0.30;0.30;;;4.00;99.90;;;;;;5014867;28;20174;-73
2022/02/16 03:28:48;;;;;;;0.30;0.30;;;4.20;99.90;;;;;;5015103;28;20171;-73
2022/02/16 03:31:14;;;;;;;0.30;0.30;;;4.00;99.90;;;;;;5015097;28;20191;-72
2022/02/16 03:33:39;;;;;;;0.30;0.30;;;4.00;99.90;;;;;;5014919;28;20164;-72
2022/02/16 03:36:05;;;;;;;0.30;0.30;;;4.10;99.90;;;;;;5014792;28;20648;-72
2022/02/16 03:38:30;;;;;;;0.40;0.40;;;4.10;99.90;;;;;;5014356;28;20260;-72
2022/02/16 03:40:56;;;;;;;0.30;0.30;;;3.80;99.90;;;;;;5013253;28;20180;-72
2022/02/16 03:43:22;;;;;;;0.30;0.30;;;3.90;99.90;;;;;;5014897;28;20178;-72
2022/02/16 03:45:48;;;;;;;0.30;0.30;;;3.60;99.90;;;;;;5014517;28;20202;-72
2022/02/16 03:48:14;;;;;;;0.37;0.37;;;3.70;99.90;;;;;;5014831;28;20486;-72
2022/02/16 03:50:40;;;;;;;0.40;0.40;;;3.80;99.90;;;;;;5014729;28;20437;-73
2022/02/16 03:53:05;;;;;;;0.30;0.30;;;3.80;99.90;;;;;;5014578;28;20291;-72
2022/02/16 03:55:31;;;;;;;0.40;0.40;;;3.80;99.90;;;;;;5014373;28;20234;-72
2022/02/16 03:57:56;;;;;;;0.30;0.30;;;3.90;99.90;;;;;;5014593;28;20531;-73
2022/02/16 04:00:23;;;;;;;0.40;0.40;;;4.30;99.90;;;;;;5014564;28;20178;-72
2022/02/16 04:02:49;;;;;;;0.40;0.40;;;4.10;99.90;;;;;;5014500;28;20192;-72
2022/02/16 04:05:14;;;;;;;0.33;0.33;;;4.10;99.90;;;;;;5014128;28;20203;-72
2022/02/16 04:07:40;;;;;;;0.40;0.40;;;4.20;99.90;;;;;;5014546;28;20578;-72
2022/02/16 04:10:07;;;;;;;0.37;0.37;;;3.90;99.90;;;;;;5014498;28;20896;-72
2022/02/16 04:12:33;;;;;;;0.40;0.40;;;3.90;99.90;;;;;;5014340;28;20194;-73
2022/02/16 04:14:58;;;;;;;0.30;0.30;;;4.00;99.90;;;;;;5014290;28;20598;-72
2022/02/16 04:17:24;;;;;;;0.30;0.30;;;4.20;99.90;;;;;;5014227;28;20179;-72
2022/02/16 04:19:50;;;;;;;0.40;0.40;;;4.30;99.90;;;;;;5014291;28;20261;-72
2022/02/16 04:22:17;;;;;;;0.30;0.30;;;4.30;99.90;;;;;;5014282;28;20194;-72
2022/02/16 04:24:43;;;;;;;0.40;0.40;;;4.20;99.90;;;;;;5014207;28;20203;-72
2022/02/16 04:27:09;;;;;;;0.30;0.30;;;4.30;99.90;;;;;;5013889;28;20180;-72
2022/02/16 04:29:35;;;;;;;0.30;0.30;;;4.40;99.90;;;;;;5014141;28;20655;-72
2022/02/16 04:32:00;;;;;;;0.40;0.40;;;4.50;99.90;;;;;;5013964;28;20190;-72
2022/02/16 04:34:26;;;;;;;0.33;0.33;;;4.60;99.90;;;;;;5013887;28;20489;-72
2022/02/16 04:36:52;;;;;;;0.30;0.30;;;4.70;99.90;;;;;;5013752;28;20178;-72
2022/02/16 04:39:17;;;;;;;0.30;0.30;;;4.60;99.90;;;;;;5014088;28;20737;-72
2022/02/16 04:41:43;;;;;;;0.30;0.30;;;4.60;99.90;;;;;;5013928;28;20704;-72
2022/02/16 04:44:09;;;;;;;0.30;0.30;;;4.70;99.90;;;;;;5013833;28;20537;-72
2022/02/16 04:46:35;;;;;;;0.30;0.30;;;4.60;99.90;;;;;;5013672;28;20597;-72
2022/02/16 04:49:00;;;;;;;0.30;0.30;;;4.70;99.90;;;;;;5013933;28;20246;-72
2022/02/16 04:51:26;;;;;;;0.33;0.33;;;4.60;99.90;;;;;;5013627;28;20673;-72
2022/02/16 04:53:51;;;;;;;0.40;0.40;;;4.60;99.90;;;;;;5013640;28;20188;-72
2022/02/16 04:56:18;;;;;;;0.30;0.30;;;4.40;99.90;;;;;;5013645;28;20178;-73
2022/02/16 04:58:44;;;;;;;0.32;0.32;;;4.40;99.90;;;;;;5013914;28;20515;-72
2022/02/16 05:01:10;;;;;;;0.40;0.40;;;4.60;99.90;;;;;;5013705;28;20554;-72
2022/02/16 05:03:36;;;;;;;0.30;0.30;;;4.40;99.90;;;;;;5013577;28;20209;-73
2022/02/16 05:06:02;;;;;;;0.30;0.30;;;4.50;99.90;;;;;;5013515;28;20260;-72
2022/02/16 05:08:27;;;;;;;0.30;0.30;;;4.60;99.90;;;;;;5013814;28;20232;-73
2022/02/16 05:10:53;;;;;;;0.30;0.30;;;4.60;99.90;;;;;;5013563;28;20171;-72
2022/02/16 05:13:19;;;;;;;0.30;0.30;;;4.80;99.90;;;;;;5013616;28;20195;-72
2022/02/16 05:15:44;;;;;;;0.30;0.30;;;4.80;99.90;;;;;;5013416;28;20413;-72
2022/02/16 05:18:10;;;;;;;0.30;0.30;;;4.80;99.90;;;;;;5013446;28;20251;-72
2022/02/16 05:20:36;;;;;;;0.30;0.30;;;4.80;99.90;;;;;;5013686;28;20180;-72
2022/02/16 05:23:03;;;;;;;0.30;0.30;;;4.90;99.90;;;;;;5013718;28;20197;-72
2022/02/16 05:25:29;;;;;;;0.30;0.30;;;4.90;99.80;;;;;;5013194;28;20507;-73
2022/02/16 05:27:55;;;;;;;0.30;0.30;;;4.80;99.70;;;;;;5013566;28;20200;-72
2022/02/16 05:30:21;;;;;;;0.30;0.30;;;4.70;99.90;;;;;;5013552;28;20741;-72
2022/02/16 05:32:46;;;;;;;0.40;0.40;;;4.80;99.90;;;;;;5013474;28;20230;-72
2022/02/16 05:35:12;;;;;;;0.40;0.40;;;4.70;99.90;;;;;;5013173;28;20416;-72
2022/02/16 05:37:39;;;;;;;0.30;0.30;;;4.70;99.70;;;;;;5013384;28;20172;-72
2022/02/16 05:40:05;;;;;;;0.40;0.40;;;4.90;99.90;;;;;;5013408;28;20194;-72
2022/02/16 05:42:34;;;;;;;0.40;0.40;;;4.70;99.90;;;;;;5012079;28;20563;-73
2022/02/16 05:45:00;;;;;;;0.30;0.30;;;4.50;99.90;;;;;;5013088;28;20556;-73
2022/02/16 05:47:25;;;;;;;0.30;0.30;;;4.60;99.90;;;;;;5013158;28;20187;-72
2022/02/16 05:49:51;;;;;;;0.37;0.37;;;4.60;99.90;;;;;;5013179;28;20171;-72
2022/02/16 05:52:16;;;;;;;0.40;0.40;;;4.50;99.90;;;;;;5012978;28;20626;-73
2022/02/16 05:54:42;;;;;;;0.30;0.30;;;4.40;99.90;;;;;;5013156;28;20168;-72
2022/02/16 05:57:08;;;;;;;0.30;0.30;;;4.30;99.90;;;;;;5013098;28;20251;-72
2022/02/16 05:59:34;;;;;;;0.30;0.30;;;4.50;99.90;;;;;;5013271;28;20175;-72
2022/02/16 06:02:03;;;;;;;0.40;0.40;;;4.40;99.90;;;;;;5012337;28;20687;-72
2022/02/16 06:04:31;;;;;;;0.30;0.30;;;4.60;99.90;;;;;;5016562;28;20300;-72
2022/02/16 06:06:56;;;;;;;0.30;0.30;;;4.50;99.90;;;;;;5016488;28;20171;-72
2022/02/16 06:09:22;;;;;;;0.40;0.40;;;4.50;99.90;;;;;;5016623;28;20179;-72
2022/02/16 06:11:48;;;;;;;0.30;0.30;;;4.60;99.90;;;;;;5016455;28;20277;-72
2022/02/16 06:14:13;;;;;;;0.37;0.37;;;4.60;99.90;;;;;;5016396;28;20176;-72
2022/02/16 06:16:39;;;;;;;0.40;0.40;;;4.60;99.90;;;;;;5016662;28;20179;-72
2022/02/16 06:19:05;;;;;;;0.40;0.40;;;4.90;99.90;;;;;;5016382;28;20173;-73
2022/02/16 06:21:31;;;;;;;0.40;0.40;;;4.70;99.90;;;;;;5016163;28;20183;-72
2022/02/16 06:23:57;;;;;;;0.30;0.30;;;4.60;99.90;;;;;;5016178;28;20179;-73
2022/02/16 06:26:22;;;;;;;0.30;0.30;;;4.70;99.90;;;;;;5016136;28;20246;-72
2022/02/16 06:28:48;;;;;;;0.30;0.30;;;4.80;99.90;;;;;;5016300;28;20399;-72
2022/02/16 06:31:14;;;;;;;0.33;0.33;;;4.70;99.90;;;;;;5016022;28;20190;-72
2022/02/16 06:33:39;;;;;;;0.30;0.30;;;4.60;99.90;;;;;;5016094;28;20179;-72
2022/02/16 06:36:05;;;;;;;0.30;0.30;;;4.70;99.90;;;;;;5015936;28;20309;-72
2022/02/16 06:38:31;;;;;;;0.30;0.30;;;4.70;99.90;;;;;;5016238;28;20178;-72
2022/02/16 06:40:56;;;;;;;0.40;0.40;;;4.80;99.90;;;;;;5016069;28;20837;-72
2022/02/16 06:43:22;;;;;;;0.40;0.40;;;4.90;99.90;;;;;;5015899;28;20661;-72
2022/02/16 06:45:48;;;;;;;0.30;0.30;;;4.80;99.70;;;;;;5015938;28;20289;-72
2022/02/16 06:48:14;;;;;;;0.30;0.30;;;4.90;99.70;;;;;;5015854;28;20200;-72
2022/02/16 06:50:40;;;;;;;0.30;0.30;;;4.70;99.90;;;;;;5016144;28;20657;-72
2022/02/16 06:53:06;;;;;;;0.30;0.30;;;4.80;99.90;;;;;;5015531;28;20250;-72
2022/02/16 06:55:33;;;;;;;0.38;0.38;;;4.80;99.90;;;;;;5015587;28;20172;-72
2022/02/16 06:57:59;;;;;;;0.40;0.40;;;4.80;99.90;;;;;;5015793;28;20241;-72
2022/02/16 07:00:24;;;;;;;0.40;0.40;;;4.90;99.90;;;;;;5015619;28;20628;-73
2022/02/16 07:02:50;;;;;;;0.30;0.30;;;5.00;99.70;;;;;;5015453;28;20195;-72
2022/02/16 07:05:16;;;;;;;0.30;0.30;;;5.10;99.70;;;;;;5015427;28;20208;-73
2022/02/16 07:07:41;;;;;;;0.30;0.30;;;5.00;99.50;;;;;;5015736;28;20521;-72
2022/02/16 07:10:08;;;;;;;0.30;0.30;;;5.00;99.50;;;;;;5015549;28;20176;-72
2022/02/16 07:12:36;;;;;;;0.40;0.40;;;5.00;99.50;;;;;;5015281;28;20191;-73
2022/02/16 07:15:01;;;;;;;0.30;0.30;;;5.10;99.60;;;;;;5014092;28;20570;-72
2022/02/16 07:17:27;;;;;;;0.30;0.30;;;5.00;99.40;;;;;;5015518;28;20310;-73
2022/02/16 07:19:53;;;;;;;0.40;0.40;;;5.10;99.50;;;;;;5015298;28;20171;-72
2022/02/16 07:22:18;;;;;;;0.37;0.37;;;5.20;99.30;;;;;;5015324;28;20554;-72
2022/02/16 07:24:44;;;;;;;0.40;0.40;;;5.20;99.20;;;;;;5015046;28;20195;-72
2022/02/16 07:27:09;;;;;;;0.30;0.30;;;5.10;99.00;;;;;;5015081;28;20171;-72
2022/02/16 07:29:35;;;;;;;0.30;0.30;;;5.20;99.10;;;;;;5015048;28;20168;-72
2022/02/16 07:32:01;;;;;;;0.30;0.30;;;5.30;99.10;;;;;;5014926;28;20198;-72
2022/02/16 07:34:29;;;;;;;0.40;0.40;;;5.30;99.10;;;;;;5015213;28;20179;-72
2022/02/16 07:36:55;;;;;;;0.30;0.30;;;5.30;98.90;;;;;;5013618;28;20205;-72
2022/02/16 07:39:26;;;;;;;0.30;0.30;;;5.30;98.90;;;;;;5015013;28;20179;-73
2022/02/16 07:41:53;;;;;;;0.40;0.40;;;5.30;99.10;;;;;;5013635;28;20595;-73
2022/02/16 07:44:19;;;;;;;0.30;0.30;;;5.40;98.80;;;;;;5014686;28;20207;-72
2022/02/16 07:46:44;;;;;;;0.30;0.30;;;5.20;98.80;;;;;;5014636;28;20164;-73
2022/02/16 07:49:10;;;;;;;0.40;0.40;;;5.20;98.80;;;;;;5014934;28;20214;-73
2022/02/16 07:51:36;;;;;;;0.40;0.40;;;5.10;98.90;;;;;;5014653;28;20190;-73
2022/02/16 07:54:01;;;;;;;0.30;0.30;;;5.30;99.10;;;;;;5013290;28;20187;-73
2022/02/16 07:56:28;;;;;;;0.37;0.37;;;5.30;98.90;;;;;;5014437;28;20185;-73
2022/02/16 07:58:53;;;;;;;0.30;0.30;;;5.40;98.90;;;;;;5014524;28;20167;-73
2022/02/16 08:01:19;;;;;;;0.40;0.40;;;5.50;98.80;;;;;;5014640;28;20543;-73
2022/02/16 08:03:44;;;;;;;0.40;0.40;;;5.50;98.70;;;;;;5014448;28;20167;-73
2022/02/16 08:06:10;;;;;;;0.30;0.30;;;5.50;98.60;;;;;;5014162;28;20203;-73
2022/02/16 08:08:36;;;;;;;0.30;0.30;;;5.50;98.70;;;;;;5014569;28;20168;-73
2022/02/16 08:11:02;;;;;;;0.40;0.40;;;5.60;98.70;;;;;;5014384;28;20511;-73
2022/02/16 08:13:27;;;;;;;0.30;0.30;;;5.60;98.30;;;;;;5014293;28;20174;-73
2022/02/16 08:15:53;;;;;;;0.30;0.30;;;5.60;98.30;;;;;;5014137;28;20403;-73
2022/02/16 08:18:18;;;;;;;0.30;0.30;;;5.70;98.30;;;;;;5014244;28;20250;-73
2022/02/16 08:20:45;;;;;;;0.30;0.30;;;5.80;98.20;;;;;;5014306;28;20172;-73
2022/02/16 08:23:11;;;;;;;0.30;0.30;;;5.80;97.90;;;;;;5014080;28;20187;-73
2022/02/16 08:25:38;;;;;;;0.30;0.30;;;5.80;97.90;;;;;;5012418;28;20203;-73
2022/02/16 08:28:05;;;;;;;0.30;0.30;;;5.80;97.60;;;;;;5014238;28;20171;-73
2022/02/16 08:30:31;;;;;;;0.30;0.30;;;5.70;97.70;;;;;;5014195;28;20167;-73
2022/02/16 08:32:57;;;;;;;0.83;0.83;;;5.60;97.70;;;;;;5013964;28;20726;-73
2022/02/16 08:35:22;;;;;;;0.40;0.40;;;5.70;97.90;;;;;;5013923;28;20206;-73
2022/02/16 08:37:48;;;;;;;0.40;0.40;;;5.70;97.90;;;;;;5014081;28;20749;-73
2022/02/16 08:40:14;;;;;;;0.40;0.40;;;5.70;97.90;;;;;;5014000;28;20452;-73
2022/02/16 08:42:40;;;;;;;0.30;0.30;;;5.70;97.90;;;;;;5013792;28;20257;-73
2022/02/16 08:45:07;;;;;;;0.30;0.30;;;5.70;97.90;;;;;;5013596;28;20206;-73
2022/02/16 08:47:32;;;;;;;0.40;0.40;;;5.80;97.90;;;;;;5013812;28;20230;-73
2022/02/16 08:49:58;;;;;;;0.30;0.30;;;5.90;97.90;;;;;;5013933;28;20168;-73
2022/02/16 08:52:25;;;;;;;0.40;0.40;;;6.00;97.60;;;;;;5013673;28;20286;-73
2022/02/16 08:54:50;;;;;;;0.40;0.40;;;5.90;97.50;;;;;;5013712;28;20167;-73
2022/02/16 08:57:17;;;;;;;0.40;0.40;;;6.00;97.50;;;;;;5013585;28;20187;-73
2022/02/16 08:59:43;;;;;;;0.30;0.30;;;6.00;97.50;;;;;;5013750;28;20398;-73
2022/02/16 09:02:09;;;;;;;0.40;0.40;;;6.10;97.40;;;;;;5012491;28;20230;-73
2022/02/16 09:04:35;;;;;;;0.40;0.40;;;6.20;97.20;;;;;;5013703;28;20196;-73
2022/02/16 09:09:45;;;;;;;0.40;0.40;;;6.30;96.80;;;;;;5013633;28;20393;-73
2022/02/16 09:12:11;;;;;;;0.40;0.40;;;6.20;96.90;;;;;;5013471;28;20279;-73
2022/02/16 09:14:37;;;;;;;0.30;0.30;;;6.30;97.00;;;;;;5013604;28;20274;-73
2022/02/16 09:17:05;;;;;;;0.30;0.30;;;6.20;96.60;;;;;;5012194;28;20641;-73
2022/02/16 09:19:35;;;;;;;0.40;0.40;;;6.20;96.80;;;;;;5013615;28;20221;-73
2022/02/16 09:22:01;;;;;;;0.40;0.40;;;6.20;96.90;;;;;;5013398;28;20616;-73
2022/02/16 09:24:27;;;;;;;0.30;0.30;;;6.20;96.90;;;;;;5013342;28;20223;-73
2022/02/16 09:26:53;;;;;;;0.30;0.30;;;6.20;96.90;;;;;;5013263;28;20203;-73
2022/02/16 09:29:19;;;;;;;0.30;0.30;;;6.30;97.00;;;;;;5013660;28;20175;-73
2022/02/16 09:31:45;;;;;;;0.30;0.30;;;6.40;96.90;;;;;;5012183;28;20188;-73
2022/02/16 09:34:11;;;;;;;0.35;0.35;;;6.50;96.80;;;;;;5013296;28;20176;-72
2022/02/16 09:36:37;;;;;;;0.30;0.30;;;6.60;96.70;;;;;;5013148;28;20737;-73
2022/02/16 09:39:04;;;;;;;0.32;0.32;;;6.60;96.70;;;;;;5017393;28;20441;-73
2022/02/16 09:41:31;;;;;;;0.40;0.40;;;6.80;96.40;;;;;;5017164;28;20659;-73
2022/02/16 09:43:58;;;;;;;0.30;0.30;;;6.90;96.10;;;;;;5016934;28;20254;-73
2022/02/16 09:46:24;;;;;;;0.40;0.40;;;7.10;95.80;;;;;;5016840;28;20179;-72
2022/02/16 09:48:50;;;;;;;0.40;0.40;;;7.10;95.70;;;;;;5017052;28;20176;-72
2022/02/16 09:51:16;;;;;;;0.40;0.40;;;7.20;95.60;;;;;;5016791;28;20655;-73
2022/02/16 09:53:42;;;;;;;0.40;0.40;;;7.30;95.30;;;;;;5016724;28;20225;-72
2022/02/16 09:56:08;;;;;;;0.30;0.30;;;7.30;95.10;;;;;;5016858;28;20177;-73
2022/02/16 09:58:34;;;;;;;0.30;0.30;;;7.30;95.10;;;;;;5017013;28;20172;-73
2022/02/16 10:01:13;;;;;;;0.30;0.30;;;7.30;94.90;;;;;;5016875;28;20180;-72
2022/02/16 10:03:57;;;;;;;0.40;0.40;;;7.20;94.80;;;;;;5016879;28;20425;-72
2022/02/16 10:06:41;;;;;;;0.30;0.30;;;7.10;95.20;;;;;;5016636;28;20238;-73
2022/02/16 10:09:08;;;;;;;0.35;0.35;;;7.10;95.30;;;;;;5016669;28;20651;-73
2022/02/16 10:11:34;;;;;;;0.40;0.40;;;7.00;95.30;;;;;;5016857;28;20204;-73
2022/02/16 10:14:15;;;;;;;0.40;0.40;;;7.00;95.60;;;;;;5015131;28;20175;-73
2022/02/16 10:16:41;;;;;;;0.30;0.30;;;7.10;95.50;;;;;;5016313;28;20226;-73
2022/02/16 10:19:06;;;;;;;0.37;0.37;;;7.10;95.50;;;;;;5016464;28;20188;-73
2022/02/16 10:21:32;;;;;;;0.30;0.30;;;7.10;95.50;;;;;;5016392;28;20274;-73
2022/02/16 10:23:57;;;;;;;0.30;0.30;;;7.10;95.40;;;;;;5016265;28;20174;-73
2022/02/16 10:26:50;;;;;;;0.30;0.30;;;7.10;95.70;;;;;;5015946;28;20230;-73
2022/02/16 10:29:24;;;;;;;0.40;0.40;;;7.10;95.60;;;;;;5016426;28;20526;-73
2022/02/16 10:31:50;;;;;;;0.30;0.30;;;7.10;95.50;;;;;;5016163;28;20191;-73
2022/02/16 10:34:16;;;;;;;0.40;0.40;;;7.10;95.40;;;;;;5016121;28;20179;-73
2022/02/16 10:36:46;;;;;;;0.30;0.30;;;7.00;95.40;;;;;;5015904;28;20164;-73
2022/02/16 10:39:17;;;;;;;0.40;0.40;;;6.90;95.70;;;;;;5016028;28;20258;-73
2022/02/16 10:41:53;;;;;;;0.40;0.40;;;6.90;95.70;;;;;;5016171;28;20195;-73
2022/02/16 10:44:26;;;;;;;0.40;0.40;;;6.80;95.80;;;;;;5015997;28;20192;-73
2022/02/16 10:47:00;;;;;;;0.40;0.40;;;6.70;95.80;;;;;;5015699;28;20174;-73
2022/02/16 10:49:27;;;;;;;0.40;0.40;;;6.70;96.00;;;;;;5015554;28;20302;-73
2022/02/16 10:52:17;;;;;;;0.40;0.40;;;6.70;96.30;;;;;;5014300;28;20569;-73
2022/02/16 10:55:00;;;;;;;0.30;0.30;;;6.50;96.10;;;;;;5014602;28;20640;-73
2022/02/16 10:57:27;;;;;;;0.38;0.38;;;6.50;96.40;;;;;;5015965;28;20179;-72
2022/02/16 10:59:53;;;;;;;0.30;0.30;;;6.50;96.60;;;;;;5015591;28;20175;-73
2022/02/16 11:02:21;;;;;;;0.40;0.40;;;6.50;96.70;;;;;;5015515;28;20202;-73
2022/02/16 11:04:48;;;;;;;0.30;0.30;;;6.60;96.70;;;;;;5015646;28;20334;-72
2022/02/16 11:07:19;;;;;;;0.40;0.40;;;6.50;96.50;;;;;;5015406;28;20247;-73
2022/02/16 11:09:48;;;;;;;0.40;0.40;;;6.50;96.70;;;;;;5015753;28;20526;-73
2022/02/16 11:12:16;;;;;;;0.30;0.30;;;6.50;96.70;;;;;;5015450;28;20191;-72
2022/02/16 11:14:41;;;;;;;0.40;0.40;;;6.30;96.80;;;;;;5015555;28;20179;-73
2022/02/16 11:17:09;;;;;;;0.40;0.40;;;6.40;97.20;;;;;;5015219;28;20267;-72
2022/02/16 11:19:36;;;;;;;0.40;0.40;;;6.50;97.30;;;;;;5015373;28;20171;-73
2022/02/16 11:22:08;;;;;;;0.40;0.40;;;6.50;97.10;;;;;;5015343;28;20208;-73
2022/02/16 11:24:36;;;;;;;0.38;0.38;;;6.50;96.90;;;;;;5015117;28;20219;-72
2022/02/16 11:27:26;;;;;;;0.40;0.40;;;6.50;97.00;;;;;;5014927;28;20179;-72
2022/02/16 11:29:56;;;;;;;0.40;0.40;;;6.60;97.00;;;;;;5004857;28;20180;-73
2022/02/16 11:32:28;;;;;;;0.30;0.30;;;6.70;97.00;;;;;;5015155;28;20192;-73
2022/02/16 11:35:21;;;;;;;0.30;0.30;;;6.80;96.80;;;;;;5015008;28;20534;-73
2022/02/16 11:38:02;;;;;;;0.40;0.40;;;6.80;96.70;;;;;;5015362;28;20264;-72
2022/02/16 11:40:45;;;;;;;0.40;0.40;;;6.80;96.70;;;;;;5014990;28;20176;-73
2022/02/16 11:43:14;;;;;;;0.30;0.30;;;6.80;96.80;;;;;;5014743;28;20196;-73
2022/02/16 11:45:45;;;;;;;0.40;0.40;;;6.70;96.70;;;;;;5014682;28;20573;-73
2022/02/16 11:48:13;;;;;;;0.40;0.40;;;6.80;96.90;;;;;;5014770;28;20174;-73
2022/02/16 11:50:40;;;;;;;0.40;0.40;;;6.70;97.00;;;;;;5014880;28;20171;-73
2022/02/16 11:53:11;;;;;;;0.40;0.40;;;6.70;97.10;;;;;;5014686;28;20299;-73
2022/02/16 11:55:42;;;;;;;0.40;0.40;;;6.70;96.90;;;;;;5014609;28;20547;-73
2022/02/16 11:58:22;;;;;;;0.30;0.30;;;6.60;97.00;;;;;;5014707;28;20179;-73
2022/02/16 12:00:56;;;;;;;0.30;0.30;;;6.60;97.30;;;;;;5014003;28;20188;-73
2022/02/16 12:03:28;;;;;;;0.40;0.40;;;6.60;97.30;;;;;;5014482;28;20166;-73
2022/02/16 12:06:00;;;;;;;0.40;0.40;;;6.60;97.20;;;;;;5014377;28;20199;-73
2022/02/16 12:08:51;;;;;;;0.40;0.40;;;6.60;97.30;;;;;;5014507;28;20511;-74
2022/02/16 12:11:31;;;;;;;0.30;0.30;;;6.60;97.40;;;;;;5014299;28;20179;-73
2022/02/16 12:14:11;;;;;;;0.40;0.40;;;6.70;97.50;;;;;;5014450;28;20194;-73
2022/02/16 12:16:42;;;;;;;0.32;0.32;;;6.70;97.50;;;;;;5014117;28;20256;-73
2022/02/16 12:19:10;;;;;;;0.40;0.40;;;6.70;97.40;;;;;;5014375;28;20167;-73
2022/02/16 12:21:37;;;;;;;0.30;0.30;;;6.80;97.40;;;;;;5014061;28;20569;-73
2022/02/16 12:24:08;;;;;;;0.30;0.30;;;6.80;97.30;;;;;;5014166;28;20217;-73
2022/02/16 12:26:41;;;;;;;0.30;0.30;;;6.80;97.30;;;;;;5014089;28;20178;-73
2022/02/16 12:29:14;;;;;;;0.30;0.30;;;6.90;97.40;;;;;;5013992;28;20207;-72
2022/02/16 12:31:42;;;;;;;0.40;0.40;;;7.00;97.30;;;;;;5013931;28;20210;-73
2022/02/16 12:34:19;;;;;;;0.40;0.40;;;7.00;97.00;;;;;;5014040;28;20171;-72
2022/02/16 12:36:48;;;;;;;0.40;0.40;;;7.00;97.00;;;;;;5014020;28;20164;-73
2022/02/16 12:39:14;;;;;;;0.40;0.40;;;6.90;96.90;;;;;;5014090;28;20168;-73
2022/02/16 12:41:41;;;;;;;0.30;0.30;;;6.90;97.10;;;;;;5013985;28;20226;-73
2022/02/16 12:44:11;;;;;;;0.30;0.30;;;6.90;97.20;;;;;;5012513;28;20637;-73
2022/02/16 12:46:43;;;;;;;0.40;0.40;;;7.00;97.30;;;;;;5013910;28;20227;-73
2022/02/16 12:49:14;;;;;;;0.30;0.30;;;7.00;97.40;;;;;;5013860;28;20241;-73
2022/02/16 12:51:44;;;;;;;0.30;0.30;;;7.00;97.40;;;;;;5013817;28;20192;-73
2022/02/16 12:54:19;;;;;;;0.30;0.30;;;7.00;97.10;;;;;;5013596;28;20553;-73
2022/02/16 12:56:47;;;;;;;0.35;0.35;;;7.00;97.20;;;;;;5013625;28;20170;-73
2022/02/16 12:59:21;;;;;;;0.30;0.30;;;7.10;97.30;;;;;;5013694;28;20214;-73
2022/02/16 13:01:51;;;;;;;0.40;0.40;;;7.10;97.20;;;;;;5013972;28;20187;-73